KTRL/TRL METAR and TAF weather

Enter ICAO airport designator
Station Type Date Time Source
KTRL METAR 2021/07/29 01:53 UTC NOAA

KTRL 290153Z AUTO 00000KT 10SM CLR 26/23 A2998 RMK AO2 SLP146 T02560228


Station Type Date Time Source
KTRL Decoded METAR 2021/07/29 01:53 UTC NOAA

TERRELL MUNICIPAL AIRPORT, TX, United States (KTRL) 32-43N 96-16W 144M
Jul 28, 2021 - 09:53 PM EDT / 2021.07.29 0153 UTC
Wind: Calm:0
Visibility: 10 mile(s):0
Sky conditions: clear
Temperature: 78.1 F (25.6 C)
Dew Point: 73.0 F (22.8 C)
Relative Humidity: 84%
Pressure (altimeter): 29.98 in. Hg (1015 hPa)
ob: KTRL 290153Z AUTO 00000KT 10SM CLR 26/23 A2998 RMK AO2 SLP146 T02560228
cycle: 2

Station Type Date Time Source
KTRL TAF UTC NOAA

Error!

Example: see airport list